Terminal Aerodrome Forecast
Issued by NWS Jackson, KY

Home | Current Version | Previous Version | Graphics & Text | Print | Product List | Glossary On
Versions: 1 2 3 4 5 6 7 8 9 10 11 12
792
FTUS43 KJKL 291743
TAFLOZ
TAF
KLOZ 291743Z 2918/3018 20008KT P6SM FEW060 SCT250
     FM292300 17006KT P6SM SKC
     FM301400 18010G18KT P6SM FEW035=

USA.gov is the U.S. government's official web portal to all federal, state and local government web resources and services.